Time;durP1;ratioP1;P1;durP2;ratioP2;P2;SDS_P1;SDS_P2;PMS_P1;PMS_P2;Temp;Humidity;BMP_temperature;BMP_pressure;BME280_temperature;BME280_humidity;BME280_pressure;Samples;Min_cycle;Max_cycle;Signal;HPM_P1;HPM_P2
2021/05/19 00:01:34;;;;;;;6.95;4.30;;;11.40;99.90;;;;;;6114810;23;20013;-90
2021/05/19 00:04:01;;;;;;;9.05;4.35;;;11.40;99.90;;;;;;6080885;23;706675;-90
2021/05/19 00:06:30;;;;;;;9.02;5.15;;;11.40;99.90;;;;;;6087406;23;20049;-90
2021/05/19 00:08:57;;;;;;;10.10;5.18;;;11.40;99.90;;;;;;6110414;23;20330;-90
2021/05/19 00:11:25;;;;;;;10.45;5.07;;;11.40;99.90;;;;;;6109174;23;20046;-90
2021/05/19 00:13:52;;;;;;;6.93;4.25;;;11.40;99.90;;;;;;6110645;23;20066;-91
2021/05/19 00:16:21;;;;;;;7.30;4.38;;;11.40;99.90;;;;;;6087118;23;20034;-91
2021/05/19 00:18:48;;;;;;;6.53;4.38;;;11.40;99.90;;;;;;6110071;23;20050;-91
2021/05/19 00:21:15;;;;;;;7.15;4.70;;;11.30;99.90;;;;;;6111323;23;20080;-91
2021/05/19 00:23:43;;;;;;;8.15;5.10;;;11.30;99.90;;;;;;6086387;23;20078;-92
2021/05/19 00:26:10;;;;;;;6.82;4.65;;;11.30;99.90;;;;;;6063584;23;20046;-92
2021/05/19 00:28:37;;;;;;;9.23;4.90;;;11.30;99.90;;;;;;6110784;23;20049;-90
2021/05/19 00:31:08;;;;;;;6.85;4.45;;;11.40;99.90;;;;;;6088603;23;20219;-91
2021/05/19 00:33:36;;;;;;;8.10;5.35;;;11.40;99.90;;;;;;6112139;23;20046;-90
2021/05/19 00:36:12;;;;;;;9.55;5.43;;;11.40;99.90;;;;;;6111621;23;20046;-90
2021/05/19 00:38:39;;;;;;;9.30;5.13;;;11.50;99.90;;;;;;6086887;23;20057;-90
2021/05/19 00:41:12;;;;;;;8.18;5.05;;;11.60;99.90;;;;;;6097056;23;20021;-91
2021/05/19 00:43:40;;;;;;;;;;;11.40;99.90;;;;;;6102463;23;20036;-91
2021/05/19 00:46:08;;;;;;;7.40;4.97;;;11.30;99.90;;;;;;6095936;23;19924;-90
2021/05/19 00:48:37;;;;;;;7.15;4.63;;;11.20;99.90;;;;;;6129715;23;20018;-91
2021/05/19 00:51:05;;;;;;;8.63;5.60;;;11.20;99.90;;;;;;6122426;23;20013;-91
2021/05/19 00:53:35;;;;;;;8.75;5.90;;;11.20;99.90;;;;;;6111178;23;20046;-91
2021/05/19 00:56:03;;;;;;;11.63;6.50;;;11.20;99.90;;;;;;6090266;23;20038;-91
2021/05/19 00:58:31;;;;;;;10.30;7.07;;;11.20;99.90;;;;;;6091930;23;20342;-88
2021/05/19 01:00:58;;;;;;;12.05;7.18;;;11.40;99.90;;;;;;6064737;23;20045;-89
2021/05/19 01:03:33;;;;;;;10.35;6.55;;;11.50;99.90;;;;;;6087366;23;20022;-91
2021/05/19 01:06:05;;;;;;;10.40;6.60;;;11.40;99.90;;;;;;6094995;23;20010;-88
2021/05/19 01:11:32;;;;;;;10.77;6.25;;;11.40;99.90;;;;;;6074729;23;20247;-91
2021/05/19 01:14:00;;;;;;;14.98;8.15;;;11.30;99.90;;;;;;6069965;23;20311;-91
2021/05/19 01:16:27;;;;;;;11.38;7.38;;;11.30;99.90;;;;;;6088522;23;20017;-91
2021/05/19 01:18:54;;;;;;;11.63;7.45;;;11.20;99.90;;;;;;6074092;23;20021;-86
2021/05/19 01:21:23;;;;;;;12.50;8.10;;;11.50;99.90;;;;;;6124916;23;20006;-88
2021/05/19 01:23:52;;;;;;;11.68;7.40;;;11.40;99.90;;;;;;6094629;23;20243;-90
2021/05/19 01:26:20;;;;;;;11.20;6.95;;;11.30;99.90;;;;;;6106629;23;20050;-91
2021/05/19 01:28:47;;;;;;;12.45;7.90;;;11.20;99.90;;;;;;6082768;23;20038;-91
2021/05/19 01:31:18;;;;;;;12.50;7.40;;;11.20;99.90;;;;;;6059077;23;20038;-90
2021/05/19 01:33:48;;;;;;;12.48;7.35;;;11.20;99.90;;;;;;6108593;23;20046;-90
2021/05/19 01:36:16;;;;;;;9.85;6.57;;;11.20;99.90;;;;;;6058745;23;20038;-91
2021/05/19 01:38:45;;;;;;;11.20;7.82;;;11.30;99.90;;;;;;6083178;23;20054;-91
2021/05/19 01:41:16;;;;;;;12.13;7.05;;;11.40;99.90;;;;;;6059944;23;20043;-91
2021/05/19 01:44:19;;;;;;;12.30;6.53;;;11.40;99.90;;;;;;6015002;23;20046;-90
2021/05/19 01:47:11;;;;;;;11.50;6.45;;;11.40;99.90;;;;;;6081963;23;20049;-90
2021/05/19 01:49:40;;;;;;;10.90;7.03;;;11.30;99.90;;;;;;6058812;23;20051;-90
2021/05/19 01:52:12;;;;;;;15.02;7.68;;;11.30;99.90;;;;;;6083043;23;20038;-90
2021/05/19 01:54:41;;;;;;;11.85;6.97;;;11.20;99.90;;;;;;6086147;23;20014;-91
2021/05/19 01:57:12;;;;;;;10.32;6.68;;;11.20;99.90;;;;;;6117603;23;20014;-91
2021/05/19 01:59:43;;;;;;;13.85;6.93;;;11.20;99.90;;;;;;6067677;23;20018;-88
2021/05/19 02:02:22;;;;;;;10.43;6.57;;;11.50;99.90;;;;;;6083762;23;20046;-87
2021/05/19 02:04:50;;;;;;;10.63;6.55;;;11.60;99.90;;;;;;6113153;23;20029;-84
2021/05/19 02:13:12;;;;;;;11.52;6.15;;;11.70;99.90;;;;;;6011854;23;20023;-86
2021/05/19 02:24:27;;;;;;;15.30;6.70;;;11.60;99.90;;;;;;6111631;23;20271;-86
2021/05/19 02:26:56;;;;;;;13.40;7.05;;;11.40;99.90;;;;;;6128614;23;20010;-85
2021/05/19 02:29:27;;;;;;;12.77;6.50;;;11.40;99.90;;;;;;6130582;23;20016;-86
2021/05/19 02:31:55;;;;;;;11.10;6.87;;;11.50;99.90;;;;;;6123716;23;20249;-88
2021/05/19 02:34:25;;;;;;;13.60;6.75;;;11.40;99.90;;;;;;6116949;23;20288;-85
2021/05/19 02:36:53;;;;;;;9.65;6.25;;;11.50;99.90;;;;;;6115279;23;20043;-86
2021/05/19 02:39:22;;;;;;;9.65;6.15;;;11.40;99.90;;;;;;6115752;23;20257;-87
2021/05/19 02:41:57;;;;;;;11.82;6.97;;;11.50;99.90;;;;;;6117439;23;20048;-88
2021/05/19 02:44:24;;;;;;;13.98;6.20;;;11.40;99.90;;;;;;6066262;23;20239;-90
2021/05/19 02:46:52;;;;;;;11.52;6.78;;;11.20;99.90;;;;;;6113046;23;20038;-91
2021/05/19 02:49:21;;;;;;;11.57;7.00;;;11.20;99.90;;;;;;6111916;23;20297;-91
2021/05/19 02:51:49;;;;;;;12.65;7.03;;;11.10;99.90;;;;;;6111850;23;20046;-90
2021/05/19 02:54:16;;;;;;;14.55;7.63;;;11.10;99.90;;;;;;6088037;23;20358;-90
2021/05/19 02:56:43;;;;;;;10.93;6.82;;;11.10;99.90;;;;;;6097311;23;20045;-90
2021/05/19 02:59:13;;;;;;;10.95;7.13;;;11.10;99.90;;;;;;6122672;23;20014;-89
2021/05/19 03:01:43;;;;;;;11.13;7.38;;;11.10;99.90;;;;;;6095604;23;20013;-90
2021/05/19 03:04:12;;;;;;;15.68;8.30;;;11.00;99.90;;;;;;6141909;23;20309;-91
2021/05/19 03:06:40;;;;;;;12.52;7.05;;;11.00;99.90;;;;;;6115450;23;20050;-89
2021/05/19 03:09:07;;;;;;;10.48;7.10;;;11.10;99.90;;;;;;6120886;23;20020;-90
2021/05/19 03:11:35;;;;;;;12.57;6.50;;;11.10;99.90;;;;;;6095885;23;20010;-88
2021/05/19 03:14:02;;;;;;;12.40;7.05;;;11.10;99.90;;;;;;6124152;23;20017;-91
2021/05/19 03:16:31;;;;;;;10.63;6.53;;;11.10;99.90;;;;;;6096624;23;20020;-91
2021/05/19 03:18:58;;;;;;;12.25;7.45;;;11.20;99.90;;;;;;6100553;23;20088;-90
2021/05/19 03:21:27;;;;;;;11.68;6.68;;;11.20;99.90;;;;;;6149587;23;20006;-89
2021/05/19 03:23:54;;;;;;;11.43;6.57;;;11.20;99.90;;;;;;6092345;23;20020;-89
2021/05/19 03:26:25;;;;;;;10.10;6.93;;;11.30;99.90;;;;;;6093541;23;20018;-90
2021/05/19 03:28:54;;;;;;;12.30;7.35;;;11.40;99.90;;;;;;6145688;23;20028;-91
2021/05/19 03:31:24;;;;;;;13.93;7.78;;;11.30;99.90;;;;;;6120342;23;20017;-91
2021/05/19 03:33:54;;;;;;;12.85;7.07;;;11.30;99.90;;;;;;6121409;23;20244;-88
2021/05/19 03:36:21;;;;;;;12.70;7.07;;;11.30;99.90;;;;;;6112770;23;20061;-90
2021/05/19 03:38:52;;;;;;;14.30;7.82;;;11.30;99.90;;;;;;6136149;23;20264;-88
2021/05/19 03:41:19;;;;;;;14.48;6.65;;;11.30;99.90;;;;;;6087853;23;20024;-90
2021/05/19 03:43:46;;;;;;;11.88;7.18;;;11.30;99.90;;;;;;6110610;23;20050;-90
2021/05/19 03:46:15;;;;;;;10.98;6.15;;;11.40;99.90;;;;;;6089539;23;20313;-88
2021/05/19 03:48:42;;;;;;;;;;;11.50;99.90;;;;;;6115283;23;20016;-91
2021/05/19 03:51:10;;;;;;;13.55;7.15;;;11.50;99.90;;;;;;6092202;23;19936;-89
2021/05/19 03:53:41;;;;;;;14.27;7.22;;;11.60;99.90;;;;;;6114948;23;20010;-89
2021/05/19 03:56:20;;;;;;;16.08;7.50;;;11.60;99.90;;;;;;6090312;23;20022;-88
2021/05/19 03:58:48;;;;;;;12.25;6.93;;;11.60;99.90;;;;;;6136392;23;20014;-89
2021/05/19 04:01:15;;;;;;;11.40;7.15;;;11.50;99.90;;;;;;6087787;23;20050;-91
2021/05/19 04:03:44;;;;;;;;;;;11.60;99.90;;;;;;6088901;23;20346;-89
2021/05/19 04:06:13;;;;;;;13.35;7.55;;;11.50;99.90;;;;;;6068161;23;19932;-91
2021/05/19 04:08:42;;;;;;;12.57;8.13;;;11.50;99.90;;;;;;6143380;23;20013;-90
2021/05/19 04:11:10;;;;;;;14.43;8.82;;;11.50;99.90;;;;;;6113059;23;20041;-90
2021/05/19 04:13:38;;;;;;;13.43;8.65;;;11.60;99.90;;;;;;6088188;23;20050;-91
2021/05/19 04:16:06;;;;;;;14.83;8.50;;;11.50;99.90;;;;;;6091774;23;20009;-91
2021/05/19 04:18:34;;;;;;;12.35;8.38;;;11.50;99.90;;;;;;6113237;23;20021;-89
2021/05/19 04:21:01;;;;;;;12.27;7.63;;;11.60;99.90;;;;;;6112975;23;20042;-88
2021/05/19 04:23:28;;;;;;;15.30;9.55;;;11.60;99.90;;;;;;6089755;23;20058;-88
2021/05/19 04:25:56;;;;;;;14.45;8.57;;;11.60;99.90;;;;;;6137989;23;20042;-89
2021/05/19 04:28:23;;;;;;;13.38;9.38;;;11.50;99.90;;;;;;6114826;23;20010;-88
2021/05/19 04:30:52;;;;;;;16.08;8.75;;;11.60;99.90;;;;;;6089329;23;20013;-87
2021/05/19 04:33:21;;;;;;;17.25;10.57;;;11.60;99.90;;;;;;6089135;23;20342;-87
2021/05/19 04:35:49;;;;;;;18.15;11.02;;;11.60;99.90;;;;;;6091861;23;20020;-89
2021/05/19 04:38:19;;;;;;;16.60;10.27;;;11.60;99.90;;;;;;6114697;23;20282;-90
2021/05/19 04:40:46;;;;;;;15.43;10.55;;;11.70;99.90;;;;;;6089774;23;20045;-89
2021/05/19 04:43:13;;;;;;;15.35;9.40;;;11.70;99.90;;;;;;6137648;23;20049;-90
2021/05/19 04:45:41;;;;;;;15.63;9.98;;;11.80;99.90;;;;;;6141734;23;20012;-89
2021/05/19 04:48:12;;;;;;;17.40;10.25;;;11.80;99.90;;;;;;6095693;23;20017;-90
2021/05/19 04:50:41;;;;;;;19.38;10.98;;;11.80;99.90;;;;;;6116527;23;20037;-89
2021/05/19 04:53:09;;;;;;;19.83;12.10;;;11.70;99.90;;;;;;6113441;23;20038;-90
2021/05/19 04:55:37;;;;;;;26.13;12.75;;;11.80;99.90;;;;;;6092231;23;20262;-90
2021/05/19 04:58:07;;;;;;;16.67;10.95;;;11.80;99.90;;;;;;6116409;23;20020;-90
2021/05/19 05:00:37;;;;;;;19.08;10.90;;;11.80;99.90;;;;;;6116069;23;20062;-88
2021/05/19 05:03:06;;;;;;;18.40;11.00;;;11.60;99.90;;;;;;6120527;23;20016;-90
2021/05/19 05:05:34;;;;;;;17.98;11.02;;;11.60;99.90;;;;;;6127842;23;20014;-89
2021/05/19 05:08:01;;;;;;;19.90;11.25;;;11.50;99.90;;;;;;6102510;23;20013;-87
2021/05/19 05:10:30;;;;;;;17.27;11.25;;;11.60;99.90;;;;;;6118123;23;20014;-88
2021/05/19 05:12:58;;;;;;;17.05;10.60;;;11.40;99.90;;;;;;6091087;23;20006;-90
2021/05/19 05:15:26;;;;;;;21.70;13.27;;;11.40;99.90;;;;;;6113828;23;20017;-89
2021/05/19 05:17:53;;;;;;;19.73;11.48;;;11.30;99.90;;;;;;6114165;23;20045;-91
2021/05/19 05:20:21;;;;;;;17.77;11.50;;;11.30;99.90;;;;;;6113361;23;20049;-90
2021/05/19 05:22:50;;;;;;;16.20;10.85;;;11.30;99.90;;;;;;6113606;23;20014;-91
2021/05/19 05:25:21;;;;;;;18.75;11.15;;;11.30;99.90;;;;;;6143136;23;20103;-89
2021/05/19 05:27:50;;;;;;;;;;;11.30;99.90;;;;;;6094455;23;20021;-89
2021/05/19 05:30:23;;;;;;;17.65;10.00;;;11.40;99.90;;;;;;6094855;23;19928;-89
2021/05/19 05:32:53;;;;;;;17.98;10.18;;;11.50;99.90;;;;;;6118026;23;20010;-88
2021/05/19 05:35:20;;;;;;;15.98;9.73;;;11.50;99.90;;;;;;6094206;23;20017;-91
2021/05/19 05:37:48;;;;;;;18.92;9.27;;;11.60;99.90;;;;;;6093642;23;20017;-90
2021/05/19 05:40:20;;;;;;;17.58;9.57;;;11.60;99.90;;;;;;6120689;23;20013;-90
2021/05/19 05:42:47;;;;;;;;;;;11.70;99.90;;;;;;6120591;23;20251;-89
2021/05/19 05:45:15;;;;;;;17.27;9.30;;;11.70;99.90;;;;;;6118738;23;19920;-90
2021/05/19 05:47:42;;;;;;;14.52;8.90;;;11.80;99.90;;;;;;6153601;23;20022;-91
2021/05/19 05:50:12;;;;;;;18.65;10.18;;;11.80;99.90;;;;;;6122948;23;20002;-90
2021/05/19 05:52:43;;;;;;;15.77;9.43;;;12.00;99.90;;;;;;6120783;23;20040;-90
2021/05/19 05:55:14;;;;;;;14.88;9.55;;;12.10;99.90;;;;;;6118226;23;20021;-90
2021/05/19 05:57:47;;;;;;;13.88;9.32;;;12.20;99.90;;;;;;6144555;23;20025;-90
2021/05/19 06:00:20;;;;;;;17.60;9.93;;;12.50;99.90;;;;;;6119748;23;20039;-91
2021/05/19 06:02:49;;;;;;;17.90;10.13;;;12.60;99.90;;;;;;6118982;23;20005;-91
2021/05/19 06:05:17;;;;;;;18.42;10.10;;;12.70;99.90;;;;;;6098235;23;20025;-92
2021/05/19 06:07:51;;;;;;;18.17;11.27;;;12.90;99.90;;;;;;6120435;23;20013;-90
2021/05/19 06:10:19;;;;;;;18.70;10.80;;;12.90;99.90;;;;;;6125835;23;20020;-91
2021/05/19 06:12:46;;;;;;;14.98;10.30;;;13.00;99.90;;;;;;6101786;23;20020;-90
2021/05/19 06:15:16;;;;;;;14.75;10.52;;;13.10;99.90;;;;;;6099696;23;20020;-91
2021/05/19 06:17:44;;;;;;;17.83;10.23;;;13.10;99.90;;;;;;6096060;23;20017;-90
2021/05/19 06:20:16;;;;;;;18.38;10.98;;;13.10;99.90;;;;;;6145914;23;20301;-91
2021/05/19 06:22:44;;;;;;;18.83;10.68;;;13.30;99.90;;;;;;6096697;23;20018;-91
2021/05/19 06:25:12;;;;;;;15.65;10.52;;;13.30;99.90;;;;;;6143196;23;20013;-90
2021/05/19 06:27:40;;;;;;;16.25;10.30;;;13.20;99.90;;;;;;6119544;23;20013;-90
2021/05/19 06:30:09;;;;;;;14.35;9.35;;;13.20;99.90;;;;;;6144810;23;20013;-89
2021/05/19 06:32:37;;;;;;;;;;;13.30;99.90;;;;;;6118569;23;20013;-90
2021/05/19 06:35:06;;;;;;;14.15;9.35;;;13.40;99.90;;;;;;6116922;23;19928;-88
2021/05/19 06:37:34;;;;;;;17.83;10.32;;;13.50;99.90;;;;;;6117997;23;20017;-89
2021/05/19 06:40:06;;;;;;;15.95;10.07;;;13.50;99.90;;;;;;6118424;23;20017;-86
2021/05/19 06:42:34;;;;;;;16.10;10.32;;;13.50;99.90;;;;;;6095673;23;20457;-90
2021/05/19 06:45:03;;;;;;;15.50;10.05;;;13.20;99.90;;;;;;6122612;23;20024;-89
2021/05/19 06:47:34;;;;;;;16.35;10.20;;;13.30;99.90;;;;;;6119199;23;20017;-87
2021/05/19 06:50:02;;;;;;;16.98;10.00;;;13.40;99.90;;;;;;6140640;23;20042;-88
2021/05/19 06:52:32;;;;;;;21.23;10.77;;;13.50;99.90;;;;;;6118642;23;20014;-85
2021/05/19 06:55:01;;;;;;;16.25;9.52;;;13.60;99.90;;;;;;6117524;23;20006;-87
2021/05/19 06:57:30;;;;;;;20.30;10.80;;;13.80;99.90;;;;;;6121271;23;20006;-89
2021/05/19 06:59:59;;;;;;;15.07;10.13;;;14.00;99.90;;;;;;6099068;23;20010;-89
2021/05/19 07:02:28;;;;;;;18.42;10.95;;;14.10;99.90;;;;;;6112246;23;20038;-83
2021/05/19 07:04:57;;;;;;;16.97;10.93;;;14.10;99.90;;;;;;6111235;23;20342;-84
2021/05/19 07:07:24;;;;;;;13.68;8.45;;;14.20;99.90;;;;;;6137091;23;20014;-86
2021/05/19 07:09:56;;;;;;;12.43;8.85;;;14.30;99.90;;;;;;6113069;23;20037;-83
2021/05/19 07:12:28;;;;;;;16.65;9.70;;;14.30;99.90;;;;;;6138331;23;20013;-86
2021/05/19 07:14:59;;;;;;;15.45;10.20;;;14.20;99.90;;;;;;6116184;23;20010;-81
2021/05/19 07:17:30;;;;;;;14.57;10.05;;;14.00;99.90;;;;;;6115317;23;20017;-83
2021/05/19 07:19:57;;;;;;;15.10;11.23;;;13.80;99.90;;;;;;6136400;23;20352;-84
2021/05/19 07:22:30;;;;;;;13.48;9.70;;;13.60;99.90;;;;;;6127318;23;20608;-81
2021/05/19 07:24:59;;;;;;;14.80;9.68;;;13.50;99.90;;;;;;6149770;23;20013;-85
2021/05/19 07:27:31;;;;;;;13.63;9.80;;;13.50;99.90;;;;;;6129445;23;20006;-81
2021/05/19 07:29:59;;;;;;;13.73;9.55;;;13.60;99.90;;;;;;6124820;23;20018;-83
2021/05/19 07:32:30;;;;;;;17.75;9.98;;;13.70;99.90;;;;;;6137440;23;20352;-84
2021/05/19 07:35:18;;;;;;;14.13;10.10;;;13.70;99.90;;;;;;6124834;23;20007;-81
2021/05/19 07:37:49;;;;;;;14.93;9.07;;;13.90;99.90;;;;;;6123255;23;20075;-84
2021/05/19 07:40:17;;;;;;;13.77;9.45;;;14.10;99.90;;;;;;6124164;23;20020;-85
2021/05/19 07:42:44;;;;;;;16.75;9.38;;;14.30;99.90;;;;;;6097033;23;20009;-82
2021/05/19 07:45:17;;;;;;;13.63;9.70;;;14.70;99.90;;;;;;6096313;23;20021;-83
2021/05/19 07:47:45;;;;;;;12.32;8.35;;;15.00;99.90;;;;;;6145843;23;20013;-80
2021/05/19 07:50:14;;;;;;;16.45;10.38;;;14.80;99.90;;;;;;6092909;23;20017;-82
2021/05/19 07:52:43;;;;;;;17.13;9.45;;;14.60;99.90;;;;;;6114442;23;20017;-80
2021/05/19 07:55:20;;;;;;;13.48;8.90;;;14.60;99.90;;;;;;6117287;23;20014;-88
2021/05/19 07:57:52;;;;;;;12.65;8.23;;;14.70;99.90;;;;;;6140080;23;20017;-88
2021/05/19 08:00:39;;;;;;;13.48;8.73;;;14.90;99.90;;;;;;6123009;23;20021;-89
2021/05/19 08:03:15;;;;;;;14.45;9.35;;;15.10;99.90;;;;;;6144813;23;20338;-90
2021/05/19 08:05:47;;;;;;;13.95;8.95;;;15.20;99.90;;;;;;6093372;23;20028;-89
2021/05/19 08:08:17;;;;;;;17.08;9.73;;;15.30;99.90;;;;;;6110628;23;20084;-90
2021/05/19 08:10:48;;;;;;;15.30;8.65;;;15.40;99.90;;;;;;6138241;23;20042;-88
2021/05/19 08:13:15;;;;;;;9.35;6.30;;;15.50;99.90;;;;;;6090637;23;20042;-88
2021/05/19 08:15:43;;;;;;;11.10;6.47;;;15.60;99.90;;;;;;6093489;23;20017;-90
2021/05/19 08:18:17;;;;;;;10.95;7.15;;;15.40;99.90;;;;;;6097906;23;20006;-89
2021/05/19 08:20:45;;;;;;;10.88;8.55;;;15.60;99.90;;;;;;6128817;23;20017;-88
2021/05/19 08:23:33;;;;;;;11.75;7.43;;;15.90;99.90;;;;;;6124181;23;20033;-88
2021/05/19 08:26:39;;;;;;;13.65;8.60;;;16.40;99.90;;;;;;6150462;23;20018;-89
2021/05/19 08:29:06;;;;;;;11.60;8.10;;;16.80;99.90;;;;;;6098965;23;20029;-88
2021/05/19 08:31:37;;;;;;;;;;;16.80;99.90;;;;;;6142863;23;20020;-88
2021/05/19 08:34:08;;;;;;;32.95;12.55;;;16.60;99.90;;;;;;6122761;23;19927;-90
2021/05/19 08:36:38;;;;;;;8.68;5.85;;;16.50;99.90;;;;;;6105711;23;20046;-89
2021/05/19 08:39:06;;;;;;;9.90;5.70;;;16.90;99.90;;;;;;6153610;23;20014;-90
2021/05/19 08:41:36;;;;;;;9.25;5.25;;;17.00;97.90;;;;;;6125625;23;20017;-90
2021/05/19 08:44:06;;;;;;;7.95;5.32;;;17.00;96.70;;;;;;6123656;23;20025;-91
2021/05/19 08:50:42;;;;;;;7.78;5.57;;;17.40;96.30;;;;;;6124514;23;20014;-90
2021/05/19 08:53:10;;;;;;;11.50;5.57;;;17.70;93.80;;;;;;6124157;23;20017;-90
2021/05/19 08:55:38;;;;;;;8.60;4.60;;;17.50;96.30;;;;;;6124770;23;20013;-89
2021/05/19 08:58:06;;;;;;;9.30;3.88;;;17.50;95.20;;;;;;6123789;23;20253;-89
2021/05/19 09:01:25;;;;;;;11.15;4.85;;;17.60;93.40;;;;;;6076283;23;20273;-87
2021/05/19 09:04:03;;;;;;;8.13;3.85;;;17.90;92.70;;;;;;6114801;23;20046;-88
2021/05/19 09:06:41;;;;;;;5.68;4.20;;;18.30;91.70;;;;;;6114588;23;20038;-89
2021/05/19 09:09:23;;;;;;;6.45;3.63;;;18.20;86.70;;;;;;6091429;23;20013;-90
2021/05/19 09:12:03;;;;;;;8.88;4.10;;;18.00;90.40;;;;;;6088833;23;20046;-87
2021/05/19 09:14:33;;;;;;;8.52;4.88;;;17.80;90.50;;;;;;6137977;23;20079;-89
2021/05/19 09:17:23;;;;;;;7.03;4.57;;;17.50;91.30;;;;;;6112624;23;20038;-90
2021/05/19 09:19:52;;;;;;;37.97;8.77;;;17.10;95.10;;;;;;6113610;23;20037;-90
2021/05/19 09:22:25;;;;;;;21.30;8.70;;;14.60;99.90;;;;;;6115205;23;20034;-92
2021/05/19 09:24:54;;;;;;;24.15;8.98;;;12.20;99.90;;;;;;6093910;23;20010;-91
2021/05/19 09:27:22;;;;;;;;;;;11.20;99.90;;;;;;6151156;23;20006;-89
2021/05/19 09:29:56;;;;;;;14.98;9.43;;;10.90;99.90;;;;;;6125490;23;19927;-93
2021/05/19 10:48:54;;;;;;;9.18;7.00;;;14.40;99.90;;;;;;5883210;24;20049;-89
2021/05/19 10:51:49;;;;;;;10.77;6.97;;;15.20;99.90;;;;;;5856800;24;20050;-87
2021/05/19 10:57:44;;;;;;;6.65;4.90;;;16.30;99.90;;;;;;5856330;24;20053;-82
2021/05/19 11:00:19;;;;;;;7.65;2.90;;;16.90;99.90;;;;;;5860745;24;20042;-82
2021/05/19 11:03:15;;;;;;;4.57;2.42;;;17.60;99.90;;;;;;5878982;24;20062;-83
2021/05/19 11:06:04;;;;;;;3.55;2.17;;;18.40;99.90;;;;;;5903696;24;20044;-84
2021/05/19 11:08:34;;;;;;;2.70;1.70;;;18.80;99.90;;;;;;5940979;24;20093;-83
2021/05/19 11:11:26;;;;;;;3.42;2.00;;;19.00;99.90;;;;;;5937792;24;20048;-81
2021/05/19 11:14:29;;;;;;;5.38;2.97;;;19.00;99.90;;;;;;5963316;24;20053;-83
2021/05/19 11:17:25;;;;;;;4.80;3.00;;;18.50;99.90;;;;;;5987130;23;20051;-83
2021/05/19 11:19:55;;;;;;;4.05;2.53;;;17.90;99.90;;;;;;6018743;23;20047;-83
2021/05/19 11:22:24;;;;;;;5.40;2.88;;;17.60;99.90;;;;;;6111185;23;20006;-83
2021/05/19 11:24:57;;;;;;;3.53;2.30;;;18.10;99.90;;;;;;6083944;23;20025;-82
2021/05/19 11:28:05;;;;;;;3.85;2.33;;;19.00;99.90;;;;;;6089517;23;20010;-85
2021/05/19 11:30:36;;;;;;;6.32;3.40;;;20.40;99.90;;;;;;6082339;23;20407;-83
2021/05/19 11:33:05;;;;;;;6.00;4.10;;;19.80;99.90;;;;;;6057447;23;20046;-86
2021/05/19 11:35:34;;;;;;;6.18;4.25;;;18.30;99.90;;;;;;6105953;23;20058;-84
2021/05/19 11:38:03;;;;;;;7.03;4.25;;;18.30;99.90;;;;;;6058367;23;20301;-87
2021/05/19 11:40:39;;;;;;;5.78;4.00;;;19.00;99.90;;;;;;6083533;23;20046;-90
2021/05/19 11:43:08;;;;;;;2.88;1.55;;;17.60;99.90;;;;;;6082043;23;20059;-88
2021/05/19 11:45:41;;;;;;;2.25;1.20;;;16.10;99.90;;;;;;6062861;23;20017;-91
2021/05/19 11:48:19;;;;;;;3.20;1.50;;;15.30;99.90;;;;;;6083400;23;20073;-89
2021/05/19 11:50:47;;;;;;;2.83;1.60;;;14.90;99.90;;;;;;6058780;23;20046;-86
2021/05/19 11:53:20;;;;;;;5.05;1.50;;;15.00;99.90;;;;;;6079244;23;20046;-86
2021/05/19 11:55:50;;;;;;;3.45;1.80;;;14.80;99.90;;;;;;6108398;23;20038;-89
2021/05/19 11:58:22;;;;;;;4.13;2.10;;;14.90;99.90;;;;;;6059819;23;20046;-90
2021/05/19 12:00:53;;;;;;;3.10;1.67;;;15.70;99.90;;;;;;6105866;23;20029;-85
2021/05/19 12:03:23;;;;;;;4.18;2.10;;;17.70;99.90;;;;;;6056069;23;20050;-83
2021/05/19 12:05:53;;;;;;;4.40;2.20;;;19.70;99.90;;;;;;6057819;23;20042;-83
2021/05/19 12:08:23;;;;;;;4.95;2.22;;;20.90;99.90;;;;;;6034801;23;20051;-83
2021/05/19 12:11:06;;;;;;;6.22;2.53;;;21.10;99.90;;;;;;6055355;23;20050;-83
2021/05/19 12:13:37;;;;;;;5.22;1.70;;;20.80;99.90;;;;;;6053663;23;20050;-84
2021/05/19 12:16:06;;;;;;;2.70;1.40;;;20.40;99.90;;;;;;6058251;23;20058;-84
2021/05/19 12:18:35;;;;;;;8.15;2.45;;;19.80;99.90;;;;;;6057841;23;20042;-83
2021/05/19 12:21:12;;;;;;;3.75;1.30;;;19.20;99.90;;;;;;6079577;23;20275;-84
2021/05/19 12:23:41;;;;;;;2.67;1.45;;;18.90;99.90;;;;;;6034339;23;20070;-84
2021/05/19 12:26:10;;;;;;;1.58;1.08;;;18.70;99.90;;;;;;6058521;23;20038;-85
2021/05/19 12:28:38;;;;;;;2.53;1.20;;;18.60;99.90;;;;;;6107615;23;20038;-86
2021/05/19 12:31:06;;;;;;;5.55;1.58;;;18.70;99.90;;;;;;6035384;23;20094;-86
2021/05/19 12:33:38;;;;;;;4.05;1.50;;;18.70;99.90;;;;;;6082154;23;20038;-86
2021/05/19 12:36:06;;;;;;;3.10;1.50;;;18.70;99.90;;;;;;6081422;23;20038;-85
2021/05/19 12:38:47;;;;;;;7.40;2.28;;;18.80;99.90;;;;;;6076634;23;20043;-84
2021/05/19 12:41:39;;;;;;;5.55;1.85;;;19.30;99.90;;;;;;6077410;23;20043;-85
2021/05/19 12:44:07;;;;;;;11.02;1.33;;;19.60;99.40;;;;;;6029226;23;20039;-86
2021/05/19 12:46:37;;;;;;;5.20;1.38;;;19.70;73.60;;;;;;6028994;23;20042;-85
2021/05/19 12:49:12;;;;;;;7.57;2.17;;;19.80;67.90;;;;;;6077471;23;20046;-85
2021/05/19 12:51:58;;;;;;;4.47;1.00;;;20.10;63.80;;;;;;6077359;23;20067;-84
2021/05/19 12:54:33;;;;;;;3.55;1.90;;;21.30;58.80;;;;;;6079438;23;20039;-85
2021/05/19 12:57:10;;;;;;;4.47;1.60;;;22.80;50.70;;;;;;6055445;23;20043;-84
2021/05/19 12:59:54;;;;;;;4.55;1.60;;;23.10;50.50;;;;;;6055062;23;20046;-85
2021/05/19 13:02:24;;;;;;;2.75;1.50;;;23.80;49.20;;;;;;6075342;23;20051;-84
2021/05/19 13:04:53;;;;;;;7.28;2.17;;;23.80;46.60;;;;;;6077842;23;20046;-85
2021/05/19 13:07:25;;;;;;;5.95;2.35;;;23.20;45.00;;;;;;6077819;23;20042;-81
2021/05/19 13:10:13;;;;;;;3.55;1.80;;;22.20;45.40;;;;;;6079588;23;20334;-87
2021/05/19 13:13:00;;;;;;;6.68;1.88;;;21.20;47.00;;;;;;6033098;23;20048;-83
2021/05/19 13:15:38;;;;;;;3.60;1.77;;;21.40;50.10;;;;;;6078492;23;20351;-85
2021/05/19 13:18:19;;;;;;;3.35;1.90;;;22.10;47.80;;;;;;6057319;23;20046;-85
2021/05/19 13:20:51;;;;;;;3.63;1.40;;;22.90;47.50;;;;;;6088777;23;20003;-85
2021/05/19 13:23:23;;;;;;;2.95;1.70;;;24.20;45.20;;;;;;6087041;23;20010;-87
2021/05/19 13:25:52;;;;;;;7.30;1.60;;;26.60;43.30;;;;;;6084919;23;20010;-86
2021/05/19 13:28:24;;;;;;;4.88;1.55;;;28.70;39.60;;;;;;6038820;23;20083;-85
2021/05/19 13:30:53;;;;;;;3.00;1.67;;;30.60;37.70;;;;;;6108986;23;20015;-87
2021/05/19 13:33:31;;;;;;;5.78;2.25;;;31.80;35.60;;;;;;6085893;23;20007;-86
2021/05/19 13:38:58;;;;;;;4.57;2.27;;;31.80;33.10;;;;;;6089701;23;20015;-85
2021/05/19 13:41:27;;;;;;;5.00;2.08;;;31.50;34.10;;;;;;6087441;23;20007;-84
2021/05/19 13:43:55;;;;;;;5.80;2.45;;;31.70;34.40;;;;;;6035561;23;20050;-87
2021/05/19 13:46:25;;;;;;;3.58;2.15;;;32.30;33.70;;;;;;6088187;23;20026;-87
2021/05/19 13:48:52;;;;;;;4.82;2.53;;;32.90;32.80;;;;;;6080815;23;20042;-86
2021/05/19 13:51:22;;;;;;;4.78;1.77;;;31.60;32.00;;;;;;6057409;23;20043;-86
2021/05/19 13:53:49;;;;;;;4.03;2.20;;;30.90;33.60;;;;;;6055802;23;20011;-84
2021/05/19 13:56:21;;;;;;;4.18;2.42;;;30.80;32.90;;;;;;6059678;23;20239;-87
2021/05/19 13:58:52;;;;;;;4.50;2.40;;;29.40;35.30;;;;;;6059873;23;20033;-86
2021/05/19 14:01:22;;;;;;;4.15;2.65;;;27.60;36.90;;;;;;6061006;23;20070;-86
2021/05/19 14:03:49;;;;;;;3.78;2.17;;;26.30;38.10;;;;;;6085547;23;20018;-87
2021/05/19 14:06:17;;;;;;;4.82;2.15;;;26.30;40.60;;;;;;6066258;23;20025;-86
2021/05/19 14:08:44;;;;;;;5.15;1.90;;;27.60;39.20;;;;;;6036812;23;20274;-86
2021/05/19 14:11:16;;;;;;;5.70;2.50;;;29.40;37.50;;;;;;6032445;23;20043;-85
2021/05/19 14:13:46;;;;;;;4.22;1.90;;;30.20;35.20;;;;;;6079141;23;20046;-87
2021/05/19 14:16:43;;;;;;;6.90;2.58;;;29.80;33.70;;;;;;6030790;23;20022;-85
2021/05/19 14:19:27;;;;;;;4.35;2.00;;;28.10;34.90;;;;;;6080588;23;20013;-86
2021/05/19 14:27:39;;;;;;;4.07;2.33;;;25.20;38.40;;;;;;6035468;23;20018;-87
2021/05/19 14:30:08;;;;;;;3.72;2.30;;;24.30;40.30;;;;;;6105957;23;20026;-89
2021/05/19 14:32:36;;;;;;;5.72;2.67;;;23.90;41.20;;;;;;6065450;23;20011;-85
2021/05/19 14:35:06;;;;;;;3.78;2.10;;;23.90;41.80;;;;;;6087898;23;20017;-85
2021/05/19 14:38:10;;;;;;;4.43;2.20;;;25.70;40.80;;;;;;6115974;23;20018;-86
2021/05/19 15:00:16;;;;;;;3.35;1.10;;;21.50;43.00;;;;;;6111315;23;20100;-86
2021/05/19 15:02:46;;;;;;;3.33;1.35;;;20.70;45.40;;;;;;6110620;23;20045;-89
2021/05/19 15:05:44;;;;;;;1.65;1.00;;;19.60;52.80;;;;;;6089617;23;20046;-87
2021/05/19 15:08:12;;;;;;;3.10;1.40;;;19.10;56.90;;;;;;6088407;23;20050;-86
2021/05/19 15:10:41;;;;;;;3.67;1.30;;;18.90;56.10;;;;;;6111618;23;20050;-88
2021/05/19 15:13:11;;;;;;;4.95;1.60;;;19.00;56.70;;;;;;6119913;23;20013;-85